Time;durP1;ratioP1;P1;durP2;ratioP2;P2;SDS_P1;SDS_P2;PMS_P1;PMS_P2;Temp;Humidity;BMP_temperature;BMP_pressure;BME280_temperature;BME280_humidity;BME280_pressure;Samples;Min_cycle;Max_cycle;Signal;HPM_P1;HPM_P2
2023/06/13 00:01:35;;;;;;;12.33;5.67;;;16.90;1.00;;;;;;4994045;28;20191;-78
2023/06/13 00:04:03;;;;;;;9.43;6.23;;;16.80;1.00;;;;;;4996945;28;20416;-78
2023/06/13 00:06:34;;;;;;;11.33;5.63;;;16.70;1.00;;;;;;4997987;28;20464;-78
2023/06/13 00:09:10;;;;;;;10.83;5.50;;;16.70;1.00;;;;;;4998573;28;20431;-79
2023/06/13 00:12:19;;;;;;;17.30;6.27;;;16.60;1.00;;;;;;4991271;28;20933;-79
2023/06/13 00:14:52;;;;;;;14.20;5.80;;;16.60;1.00;;;;;;4982099;28;20394;-79
2023/06/13 00:17:25;;;;;;;7.63;5.30;;;16.50;1.00;;;;;;4992939;28;20388;-79
2023/06/13 00:20:05;;;;;;;7.93;5.83;;;16.40;1.00;;;;;;4998341;28;20424;-79
2023/06/13 00:22:31;;;;;;;9.33;5.67;;;16.40;1.00;;;;;;4995031;28;20413;-79
2023/06/13 00:24:58;;;;;;;14.77;5.93;;;16.40;1.00;;;;;;4990249;28;20427;-79
2023/06/13 00:27:27;;;;;;;11.60;5.47;;;16.30;1.00;;;;;;4984562;28;20191;-79
2023/06/13 00:29:59;;;;;;;10.73;5.90;;;16.30;1.00;;;;;;4997938;28;20513;-80
2023/06/13 00:32:27;;;;;;;9.03;5.77;;;16.10;1.00;;;;;;4997776;28;20431;-79
2023/06/13 00:35:33;;;;;;;14.87;5.73;;;16.10;1.00;;;;;;4997924;28;20486;-79
2023/06/13 00:38:23;;;;;;;15.27;6.63;;;16.10;1.00;;;;;;4995402;28;20433;-78
2023/06/13 00:40:52;;;;;;;10.90;5.90;;;16.00;1.00;;;;;;4979269;28;20834;-79
2023/06/13 00:43:34;;;;;;;10.90;5.90;;;15.90;1.00;;;;;;4990230;28;20395;-79
2023/06/13 00:46:13;;;;;;;9.67;5.80;;;15.90;1.00;;;;;;4990540;28;20421;-78
2023/06/13 00:48:51;;;;;;;7.33;5.33;;;15.80;1.00;;;;;;4997562;28;20878;-79
2023/06/13 00:51:20;;;;;;;15.80;6.30;;;15.70;1.00;;;;;;4997665;28;20947;-73
2023/06/13 00:54:06;;;;;;;8.43;5.60;;;15.70;1.00;;;;;;4997353;28;20411;-73
2023/06/13 00:56:33;;;;;;;6.87;5.33;;;15.60;1.00;;;;;;4997373;28;20431;-73
2023/06/13 00:59:03;;;;;;;8.40;5.07;;;15.60;1.00;;;;;;4997871;28;20438;-74
2023/06/13 01:01:40;;;;;;;9.17;5.80;;;15.50;1.00;;;;;;4996729;28;20541;-73
2023/06/13 01:04:19;;;;;;;8.80;5.50;;;15.50;1.00;;;;;;4995526;28;20403;-78
2023/06/13 01:06:45;;;;;;;14.60;6.40;;;15.40;1.00;;;;;;4984234;28;20404;-79
2023/06/13 01:09:22;;;;;;;8.33;5.23;;;15.40;1.00;;;;;;4979618;28;20411;-79
2023/06/13 01:12:02;;;;;;;9.60;5.67;;;15.30;1.00;;;;;;4996855;28;20407;-79
2023/06/13 01:15:01;;;;;;;11.70;5.80;;;15.30;1.00;;;;;;4990864;28;20418;-79
2023/06/13 01:17:34;;;;;;;9.17;5.40;;;15.20;1.00;;;;;;4996565;28;20408;-79
2023/06/13 01:20:05;;;;;;;9.90;5.67;;;15.10;1.00;;;;;;4979396;28;20440;-74
2023/06/13 01:22:57;;;;;;;13.97;5.93;;;15.10;1.00;;;;;;4997102;28;20919;-73
2023/06/13 01:26:00;;;;;;;7.40;5.77;;;15.00;1.00;;;;;;4979931;28;20491;-73
2023/06/13 01:28:28;;;;;;;9.33;5.70;;;15.00;1.00;;;;;;4986852;28;20411;-73
2023/06/13 01:30:58;;;;;;;8.60;5.20;;;14.90;1.00;;;;;;5002606;28;20415;-73
2023/06/13 01:33:25;;;;;;;10.50;5.80;;;14.90;1.00;;;;;;5004318;28;20426;-73
2023/06/13 01:35:53;;;;;;;10.93;5.70;;;14.90;1.00;;;;;;4998084;28;20516;-78
2023/06/13 01:38:39;;;;;;;12.03;5.80;;;14.80;1.00;;;;;;5001440;28;20453;-79
2023/06/13 01:41:15;;;;;;;9.17;5.47;;;14.80;1.00;;;;;;4990825;28;20462;-79
2023/06/13 01:43:41;;;;;;;9.37;5.63;;;14.70;1.00;;;;;;4996154;28;20407;-80
2023/06/13 01:46:23;;;;;;;7.70;5.60;;;14.60;1.00;;;;;;5000527;28;20505;-79
2023/06/13 01:49:16;;;;;;;7.63;5.53;;;14.60;1.00;;;;;;4979015;28;20532;-79
2023/06/13 01:52:08;;;;;;;7.07;5.07;;;14.50;1.00;;;;;;4975489;28;20435;-73
2023/06/13 01:54:46;;;;;;;12.53;5.60;;;14.50;1.00;;;;;;4960083;28;20411;-73
2023/06/13 01:57:16;;;;;;;12.90;5.57;;;14.40;1.00;;;;;;4996368;28;20397;-74
2023/06/13 01:59:43;;;;;;;8.50;5.40;;;14.40;1.00;;;;;;4999030;28;20597;-73
2023/06/13 02:02:10;;;;;;;13.50;6.67;;;14.30;1.00;;;;;;4991282;28;20804;-73
2023/06/13 02:04:40;;;;;;;9.97;6.23;;;14.20;1.00;;;;;;5000406;28;20392;-74
2023/06/13 02:07:10;;;;;;;9.67;6.07;;;14.20;1.00;;;;;;4987359;28;20943;-73
2023/06/13 02:09:36;;;;;;;19.47;7.20;;;14.10;1.00;;;;;;4995447;28;20481;-73
2023/06/13 02:12:02;;;;;;;17.90;5.77;;;14.10;1.00;;;;;;4987800;28;20410;-73
2023/06/13 02:14:32;;;;;;;5.70;5.10;;;14.00;1.00;;;;;;4995732;28;20786;-73
2023/06/13 02:16:59;;;;;;;8.60;5.43;;;14.10;1.00;;;;;;4979440;28;20436;-73
2023/06/13 02:19:29;;;;;;;10.40;5.43;;;14.00;1.00;;;;;;5000848;28;20431;-73
2023/06/13 02:21:57;;;;;;;6.70;5.30;;;14.00;1.00;;;;;;4985075;28;20391;-79
2023/06/13 02:24:27;;;;;;;9.27;5.60;;;14.00;1.00;;;;;;4992421;28;20397;-79
2023/06/13 02:27:27;;;;;;;7.70;5.57;;;13.90;1.00;;;;;;5001911;28;20425;-78
2023/06/13 02:29:58;;;;;;;5.90;4.67;;;13.90;1.00;;;;;;4969189;28;20491;-79
2023/06/13 02:32:29;;;;;;;7.70;5.30;;;13.80;1.00;;;;;;4995616;28;20459;-79
2023/06/13 02:34:58;;;;;;;5.50;4.60;;;13.80;1.00;;;;;;4978236;28;20543;-78
2023/06/13 02:37:45;;;;;;;12.90;5.77;;;13.80;1.00;;;;;;4995362;28;20810;-79
2023/06/13 02:40:28;;;;;;;7.30;5.43;;;13.70;1.00;;;;;;4995326;28;20454;-79
2023/06/13 02:42:57;;;;;;;9.23;5.23;;;13.70;1.00;;;;;;4995381;28;20399;-79
2023/06/13 02:45:45;;;;;;;10.60;5.37;;;13.70;1.00;;;;;;4995372;28;20396;-79
2023/06/13 02:48:15;;;;;;;7.17;5.63;;;13.70;1.00;;;;;;4995189;28;20387;-78
2023/06/13 02:51:09;;;;;;;6.30;5.07;;;13.60;1.00;;;;;;4995179;28;20452;-79
2023/06/13 02:53:40;;;;;;;6.80;5.07;;;13.60;1.00;;;;;;4994155;28;20833;-78
2023/06/13 02:56:10;;;;;;;7.97;5.60;;;13.70;1.00;;;;;;4994443;28;20931;-79
2023/06/13 02:58:57;;;;;;;8.33;5.33;;;13.60;1.00;;;;;;4994615;28;20425;-79
2023/06/13 03:01:23;;;;;;;8.00;4.80;;;13.60;1.00;;;;;;4994065;28;20503;-78
2023/06/13 03:03:52;;;;;;;7.70;5.80;;;13.50;1.00;;;;;;4995204;28;20404;-85
2023/06/13 03:09:59;;;;;;;7.10;5.63;;;13.50;1.00;;;;;;4994879;28;20431;-85
2023/06/13 03:12:57;;;;;;;8.50;5.70;;;13.50;1.00;;;;;;4995372;28;20375;-85
2023/06/13 03:15:57;;;;;;;13.40;5.40;;;13.40;1.00;;;;;;4985101;28;20762;-85
2023/06/13 03:18:35;;;;;;;7.20;5.60;;;13.40;1.00;;;;;;4990083;28;20482;-85
2023/06/13 03:24:28;;;;;;;5.60;4.97;;;13.30;1.00;;;;;;4993730;28;20394;-85
2023/06/13 03:27:12;;;;;;;9.03;5.80;;;13.30;1.00;;;;;;4992610;28;20423;-85
2023/06/13 03:30:27;;;;;;;7.03;5.20;;;13.40;1.00;;;;;;5002566;28;20410;-85
2023/06/13 03:33:27;;;;;;;8.30;5.37;;;13.30;1.00;;;;;;5003043;28;20442;-85
2023/06/13 03:36:27;;;;;;;8.50;5.00;;;13.30;1.00;;;;;;4994958;28;20438;-85
2023/06/13 03:38:57;;;;;;;8.47;5.70;;;13.30;1.00;;;;;;4977025;28;20387;-85
2023/06/13 03:41:39;;;;;;;7.73;5.40;;;13.30;1.00;;;;;;4974706;28;20432;-85
2023/06/13 03:47:57;;;;;;;6.60;4.73;;;13.30;1.00;;;;;;4975886;28;20400;-85
2023/06/13 03:50:28;;;;;;;17.20;5.37;;;13.30;1.00;;;;;;4972671;28;20445;-85
2023/06/13 03:52:57;;;;;;;13.70;5.87;;;13.30;1.00;;;;;;4977421;28;20474;-86
2023/06/13 03:55:29;;;;;;;7.83;5.00;;;13.30;1.00;;;;;;4977497;28;20871;-86
2023/06/13 03:57:58;;;;;;;18.33;5.50;;;13.30;1.00;;;;;;4977274;28;20400;-86
2023/06/13 04:00:57;;;;;;;12.70;5.90;;;13.40;1.00;;;;;;4977253;28;20449;-86
2023/06/13 04:03:57;;;;;;;6.73;5.10;;;13.30;1.00;;;;;;4985756;28;20442;-86
2023/06/13 04:06:28;;;;;;;8.57;5.40;;;13.40;1.00;;;;;;4995004;28;20408;-85
2023/06/13 04:08:58;;;;;;;8.20;5.57;;;13.40;1.00;;;;;;4977413;28;20391;-85
2023/06/13 04:11:24;;;;;;;8.00;5.60;;;13.40;1.00;;;;;;4994630;28;20503;-85
2023/06/13 04:13:51;;;;;;;16.53;5.20;;;13.50;1.00;;;;;;4977116;28;20388;-85
2023/06/13 04:16:59;;;;;;;14.83;6.10;;;13.50;1.00;;;;;;4994187;28;20467;-86
2023/06/13 04:19:57;;;;;;;10.73;6.10;;;13.50;1.00;;;;;;4976706;28;20874;-84
2023/06/13 04:22:58;;;;;;;9.97;5.90;;;13.60;1.00;;;;;;4977095;28;20412;-85
2023/06/13 04:25:27;;;;;;;10.33;5.90;;;13.60;1.00;;;;;;4993507;28;20503;-85
2023/06/13 04:27:58;;;;;;;12.07;5.93;;;13.60;1.00;;;;;;4999181;28;20415;-83
2023/06/13 04:30:28;;;;;;;13.63;5.90;;;13.60;1.00;;;;;;4994547;28;20476;-85
2023/06/13 04:33:27;;;;;;;12.13;6.30;;;13.70;1.00;;;;;;4994438;28;20403;-85
2023/06/13 04:36:05;;;;;;;9.17;5.90;;;13.80;1.00;;;;;;4999507;28;20458;-85
2023/06/13 04:42:01;;;;;;;13.90;5.43;;;13.90;1.00;;;;;;4993773;28;20402;-84
2023/06/13 04:44:28;;;;;;;10.00;5.73;;;14.00;1.00;;;;;;4974376;28;20392;-85
2023/06/13 04:47:01;;;;;;;15.77;6.13;;;14.00;1.00;;;;;;4973158;28;20445;-85
2023/06/13 04:49:28;;;;;;;12.93;5.83;;;14.10;1.00;;;;;;4974378;28;20454;-85
2023/06/13 04:52:15;;;;;;;7.80;5.80;;;14.20;1.00;;;;;;4980295;28;20411;-84
2023/06/13 04:54:46;;;;;;;7.00;5.60;;;14.20;1.00;;;;;;4980681;28;20423;-85
2023/06/13 04:57:28;;;;;;;9.73;5.37;;;14.30;1.00;;;;;;4978973;28;20424;-85
2023/06/13 05:00:15;;;;;;;10.70;5.90;;;14.40;1.00;;;;;;4980481;28;20959;-86
2023/06/13 05:02:42;;;;;;;7.83;5.30;;;14.50;1.00;;;;;;5005005;28;20415;-85
2023/06/13 05:05:28;;;;;;;7.07;4.80;;;14.60;1.00;;;;;;4990605;28;20464;-85
2023/06/13 05:07:59;;;;;;;12.87;5.27;;;14.70;1.00;;;;;;4993094;28;20428;-87
2023/06/13 05:13:58;;;;;;;6.93;5.13;;;15.00;1.00;;;;;;4987813;28;20387;-83
2023/06/13 05:16:29;;;;;;;7.40;4.93;;;15.00;1.00;;;;;;4997352;28;20448;-88
2023/06/13 05:19:00;;;;;;;7.70;5.10;;;15.20;1.00;;;;;;4979853;28;20432;-87
2023/06/13 05:21:29;;;;;;;17.57;5.97;;;15.30;1.00;;;;;;4988229;28;20430;-87
2023/06/13 05:23:58;;;;;;;10.43;5.00;;;15.40;1.00;;;;;;4977526;28;20412;-85
2023/06/13 05:26:28;;;;;;;8.13;4.70;;;15.60;1.00;;;;;;4977845;28;20404;-87
2023/06/13 05:28:57;;;;;;;9.30;5.20;;;15.80;1.00;;;;;;4975490;28;20856;-88
2023/06/13 05:31:28;;;;;;;9.90;4.50;;;15.90;1.00;;;;;;4973296;28;20436;-88
2023/06/13 05:33:58;;;;;;;7.80;4.70;;;16.00;1.00;;;;;;4992668;28;20763;-87
2023/06/13 05:36:34;;;;;;;8.40;5.17;;;16.20;1.00;;;;;;4974433;28;20806;-88
2023/06/13 05:39:27;;;;;;;9.47;5.00;;;16.30;1.00;;;;;;4979820;28;20813;-90
2023/06/13 05:42:39;;;;;;;8.23;5.33;;;16.50;1.00;;;;;;4977886;28;20517;-90
2023/06/13 05:45:27;;;;;;;7.03;4.17;;;16.70;1.00;;;;;;4987898;28;20913;-87
2023/06/13 05:47:53;;;;;;;8.13;3.93;;;16.90;1.00;;;;;;4979539;28;20425;-87
2023/06/13 05:50:28;;;;;;;15.17;3.90;;;17.10;1.00;;;;;;4989008;28;20432;-87
2023/06/13 05:52:58;;;;;;;7.57;4.47;;;17.20;1.00;;;;;;4976687;28;20164;-87
2023/06/13 05:58:45;;;;;;;5.90;3.87;;;17.60;1.00;;;;;;4982364;28;20816;-88
2023/06/13 06:01:22;;;;;;;4.80;4.30;;;17.80;1.00;;;;;;4970422;28;20559;-87
2023/06/13 06:03:58;;;;;;;6.07;3.90;;;17.90;1.00;;;;;;4979578;28;20577;-87
2023/06/13 06:06:52;;;;;;;10.77;4.00;;;18.10;1.00;;;;;;4979375;28;20439;-87
2023/06/13 06:09:39;;;;;;;7.73;4.10;;;18.20;1.00;;;;;;4979190;28;20454;-88
2023/06/13 06:15:27;;;;;;;6.83;4.10;;;18.60;1.00;;;;;;4987924;28;20486;-88
2023/06/13 06:21:28;;;;;;;6.53;3.83;;;18.90;1.00;;;;;;4995685;28;20575;-88
2023/06/13 06:24:45;;;;;;;4.97;3.70;;;19.00;1.00;;;;;;4982657;28;20450;-88
2023/06/13 06:30:52;;;;;;;4.33;3.87;;;19.30;1.00;;;;;;4990456;28;20451;-88
2023/06/13 06:34:04;;;;;;;6.60;3.70;;;19.50;1.00;;;;;;4971358;28;20475;-88
2023/06/13 06:36:29;;;;;;;15.40;4.13;;;19.70;1.00;;;;;;4986974;28;20908;-74
2023/06/13 06:38:55;;;;;;;9.00;4.37;;;19.80;1.00;;;;;;4994580;28;20426;-74
2023/06/13 06:41:21;;;;;;;4.97;4.20;;;19.90;1.00;;;;;;4995389;28;20191;-74
2023/06/13 06:43:46;;;;;;;14.30;3.67;;;20.10;1.00;;;;;;4994154;28;20263;-74
2023/06/13 06:46:16;;;;;;;6.77;3.40;;;20.30;1.00;;;;;;4995423;28;20615;-74
2023/06/13 06:48:41;;;;;;;5.30;3.87;;;20.40;1.00;;;;;;4994916;28;20624;-74
2023/06/13 06:51:07;;;;;;;4.50;3.50;;;20.60;1.00;;;;;;4994844;28;20430;-74
2023/06/13 06:53:33;;;;;;;5.07;3.70;;;20.70;1.00;;;;;;4989196;28;20186;-75
2023/06/13 06:56:04;;;;;;;6.77;3.77;;;20.80;1.00;;;;;;4977794;28;20191;-74
2023/06/13 06:58:40;;;;;;;3.60;3.30;;;21.00;1.00;;;;;;4980953;28;20184;-74
2023/06/13 07:01:10;;;;;;;5.67;3.60;;;21.10;1.00;;;;;;4988796;28;20550;-74
2023/06/13 07:03:35;;;;;;;3.50;3.20;;;21.30;1.00;;;;;;4994564;28;20493;-74
2023/06/13 07:06:02;;;;;;;8.07;3.90;;;21.40;1.00;;;;;;4995107;28;20409;-74
2023/06/13 07:08:28;;;;;;;4.60;3.90;;;21.50;1.00;;;;;;4995386;28;20220;-74
2023/06/13 07:10:54;;;;;;;4.30;3.90;;;21.60;1.00;;;;;;4994949;28;20535;-75
2023/06/13 07:13:20;;;;;;;8.23;3.83;;;21.70;1.00;;;;;;4994750;28;20214;-75
2023/06/13 07:15:46;;;;;;;3.60;3.30;;;21.80;1.00;;;;;;4994626;28;20449;-74
2023/06/13 07:18:11;;;;;;;6.60;3.80;;;21.90;1.00;;;;;;5001139;28;20185;-74
2023/06/13 07:20:37;;;;;;;6.30;4.00;;;21.90;1.00;;;;;;4994430;28;20205;-74
2023/06/13 07:23:03;;;;;;;8.53;3.63;;;22.00;1.00;;;;;;4991698;28;20236;-74
2023/06/13 07:25:46;;;;;;;5.40;4.00;;;22.10;1.00;;;;;;4994403;28;20272;-80
2023/06/13 07:28:22;;;;;;;5.33;3.73;;;22.30;1.00;;;;;;4991353;28;20653;-80
2023/06/13 07:30:52;;;;;;;5.63;3.60;;;22.40;1.00;;;;;;4991501;28;20431;-80
2023/06/13 07:33:22;;;;;;;5.03;3.60;;;22.50;1.00;;;;;;4994512;28;20768;-79
2023/06/13 07:36:16;;;;;;;5.20;3.50;;;22.60;1.00;;;;;;4993897;28;20572;-80
2023/06/13 07:38:42;;;;;;;8.17;3.20;;;22.70;1.00;;;;;;4994817;28;20417;-74
2023/06/13 07:41:10;;;;;;;4.47;4.03;;;22.80;1.00;;;;;;4994198;28;20546;-74
2023/06/13 07:43:36;;;;;;;8.20;4.17;;;22.90;1.00;;;;;;4994082;28;20419;-74
2023/06/13 07:46:01;;;;;;;7.40;3.50;;;23.00;1.00;;;;;;4985789;28;20420;-74
2023/06/13 07:48:27;;;;;;;3.37;3.07;;;23.10;1.00;;;;;;4994415;28;20164;-75
2023/06/13 07:50:53;;;;;;;7.03;3.37;;;23.20;1.00;;;;;;4994432;28;20176;-74
2023/06/13 07:53:22;;;;;;;3.93;3.37;;;23.30;1.00;;;;;;4985215;28;20181;-74
2023/06/13 07:55:54;;;;;;;5.30;3.97;;;23.40;1.00;;;;;;4985115;28;20195;-80
2023/06/13 07:58:22;;;;;;;7.43;3.60;;;23.50;1.00;;;;;;4991899;28;20550;-80
2023/06/13 08:00:58;;;;;;;3.80;3.10;;;23.60;1.00;;;;;;4986093;28;20476;-80
2023/06/13 08:03:24;;;;;;;6.73;3.40;;;23.70;1.00;;;;;;4993168;28;20446;-80
2023/06/13 08:05:52;;;;;;;5.10;3.03;;;23.70;1.00;;;;;;4976852;28;20455;-80
2023/06/13 08:08:28;;;;;;;7.53;3.23;;;23.80;1.00;;;;;;4993978;28;20413;-80
2023/06/13 08:10:58;;;;;;;8.37;3.33;;;23.80;1.00;;;;;;4993888;28;20475;-74
2023/06/13 08:13:24;;;;;;;5.73;3.93;;;23.90;1.00;;;;;;4990115;28;20478;-74
2023/06/13 08:15:58;;;;;;;8.50;3.40;;;24.00;1.00;;;;;;4993948;28;20938;-74
2023/06/13 08:18:36;;;;;;;3.47;3.17;;;24.10;1.00;;;;;;4994079;28;20669;-75
2023/06/13 08:21:04;;;;;;;6.80;3.67;;;24.10;1.00;;;;;;4993854;28;20449;-74
2023/06/13 08:23:30;;;;;;;6.30;3.97;;;24.10;1.00;;;;;;4994206;28;20505;-74
2023/06/13 08:25:55;;;;;;;4.70;3.07;;;24.20;1.00;;;;;;4998202;28;20415;-75
2023/06/13 08:28:22;;;;;;;4.20;3.60;;;24.30;1.00;;;;;;4994428;28;20188;-74
2023/06/13 08:30:52;;;;;;;3.40;3.20;;;24.50;1.00;;;;;;5002932;28;20204;-74
2023/06/13 08:33:22;;;;;;;4.53;4.07;;;24.40;1.00;;;;;;4997754;28;20411;-74
2023/06/13 08:35:52;;;;;;;3.60;3.30;;;24.40;1.00;;;;;;4999243;28;20811;-74
2023/06/13 08:38:34;;;;;;;10.90;3.90;;;24.50;1.00;;;;;;4997681;28;20545;-74
2023/06/13 08:41:22;;;;;;;9.93;3.90;;;24.50;1.00;;;;;;4997933;28;20513;-80
2023/06/13 08:43:49;;;;;;;3.40;3.10;;;24.50;1.00;;;;;;4997510;28;20407;-80
2023/06/13 08:46:29;;;;;;;3.37;3.17;;;24.60;1.00;;;;;;4999473;28;20438;-80
2023/06/13 08:49:21;;;;;;;4.30;3.63;;;24.60;1.00;;;;;;4997336;28;20437;-79
2023/06/13 08:52:27;;;;;;;8.00;3.30;;;24.70;1.00;;;;;;4995744;28;20442;-80
2023/06/13 08:54:58;;;;;;;9.67;3.67;;;24.90;1.00;;;;;;4986381;28;20553;-74
2023/06/13 08:57:31;;;;;;;7.90;3.60;;;25.10;1.00;;;;;;4991755;28;20494;-75
2023/06/13 09:00:00;;;;;;;4.90;3.57;;;25.10;1.00;;;;;;4997280;28;20450;-74
2023/06/13 09:02:26;;;;;;;9.03;4.50;;;25.20;1.00;;;;;;5012087;28;20424;-74
2023/06/13 09:04:52;;;;;;;7.03;3.53;;;25.40;1.00;;;;;;4999148;28;20916;-74
2023/06/13 09:07:21;;;;;;;11.80;3.10;;;25.40;1.00;;;;;;4997243;28;20183;-74
2023/06/13 09:09:49;;;;;;;6.13;4.00;;;25.50;1.00;;;;;;4997517;28;20412;-74
2023/06/13 09:12:16;;;;;;;4.67;3.60;;;25.50;1.00;;;;;;4997226;28;20440;-74
2023/06/13 09:14:42;;;;;;;10.60;3.73;;;25.40;1.00;;;;;;4996987;28;20396;-74
2023/06/13 09:17:08;;;;;;;3.87;3.47;;;25.40;1.00;;;;;;4997147;28;20754;-74
2023/06/13 09:19:35;;;;;;;3.37;3.07;;;25.50;1.00;;;;;;4996407;28;20523;-74
2023/06/13 09:22:01;;;;;;;8.20;3.60;;;25.50;1.00;;;;;;4997091;28;20429;-74
2023/06/13 09:24:27;;;;;;;4.13;3.73;;;25.40;1.00;;;;;;4979753;28;20507;-75
2023/06/13 09:27:04;;;;;;;3.70;3.17;;;25.40;1.00;;;;;;4996980;28;20431;-74
2023/06/13 09:29:35;;;;;;;4.30;3.67;;;25.50;1.00;;;;;;4996858;28;20459;-74
2023/06/13 09:32:05;;;;;;;4.33;3.57;;;25.60;1.00;;;;;;5008403;28;20491;-74
2023/06/13 09:34:31;;;;;;;4.80;3.30;;;25.70;1.00;;;;;;4995528;28;21937;-74
2023/06/13 09:36:58;;;;;;;4.17;3.83;;;25.80;1.00;;;;;;4995793;28;20510;-74
2023/06/13 09:39:31;;;;;;;3.37;3.17;;;25.90;1.00;;;;;;4996245;28;20872;-76
2023/06/13 09:42:01;;;;;;;5.20;3.20;;;25.90;1.00;;;;;;4996381;28;20420;-80
2023/06/13 09:44:40;;;;;;;3.07;2.87;;;26.00;1.00;;;;;;4978971;28;20421;-79
2023/06/13 09:47:28;;;;;;;5.90;2.90;;;25.90;1.00;;;;;;4971804;28;20494;-79
2023/06/13 09:50:00;;;;;;;4.07;3.67;;;25.90;1.00;;;;;;4996337;28;20406;-79
2023/06/13 09:52:32;;;;;;;4.00;3.70;;;25.80;1.00;;;;;;4991333;28;20432;-79
2023/06/13 09:54:58;;;;;;;8.60;3.20;;;25.90;1.00;;;;;;4985552;28;20420;-74
2023/06/13 09:57:24;;;;;;;7.30;3.30;;;26.00;1.00;;;;;;4994022;28;20432;-74
2023/06/13 09:59:51;;;;;;;6.27;3.30;;;26.20;1.00;;;;;;4978779;28;20454;-74
2023/06/13 10:02:20;;;;;;;7.80;3.37;;;26.20;1.00;;;;;;4978950;28;20423;-74
2023/06/13 10:05:05;;;;;;;8.37;3.30;;;26.40;1.00;;;;;;5004624;28;20527;-85
2023/06/13 10:07:58;;;;;;;5.90;3.20;;;26.50;1.00;;;;;;4971566;28;20430;-91
2023/06/13 10:13:57;;;;;;;7.10;3.00;;;26.70;1.00;;;;;;4994259;28;20472;-90
2023/06/13 10:16:29;;;;;;;8.20;3.70;;;26.80;1.00;;;;;;4974253;28;21009;-91
2023/06/13 10:19:29;;;;;;;3.27;2.97;;;26.90;1.00;;;;;;4971909;28;20445;-91
2023/06/13 10:22:28;;;;;;;6.40;3.53;;;27.00;1.00;;;;;;4960439;28;20422;-91
2023/06/13 10:28:57;;;;;;;15.77;3.43;;;27.00;1.00;;;;;;4990927;28;20464;-90
2023/06/13 10:32:02;;;;;;;5.40;3.23;;;27.20;1.00;;;;;;4980030;28;20521;-90
2023/06/13 10:38:21;;;;;;;7.80;3.00;;;27.20;1.00;;;;;;4985126;28;20479;-91
2023/06/13 10:44:57;;;;;;;5.27;3.50;;;27.10;1.00;;;;;;4993000;28;20405;-91
2023/06/13 10:47:59;;;;;;;6.30;3.33;;;26.90;1.00;;;;;;4977405;28;20504;-91
2023/06/13 10:50:37;;;;;;;5.63;3.60;;;27.00;1.00;;;;;;4966039;28;20437;-90
2023/06/13 10:53:37;;;;;;;4.60;3.63;;;27.20;1.00;;;;;;4976727;28;20426;-91
2023/06/13 10:56:34;;;;;;;4.87;3.37;;;27.20;1.00;;;;;;4900521;29;20463;-91
2023/06/13 11:02:45;;;;;;;4.40;3.40;;;27.50;1.00;;;;;;4916966;29;20426;-91
2023/06/13 11:05:29;;;;;;;6.03;3.60;;;27.70;1.00;;;;;;4897547;29;20504;-91
2023/06/13 11:07:58;;;;;;;4.57;3.30;;;27.70;1.00;;;;;;4914744;29;20438;-91
2023/06/13 11:13:54;;;;;;;8.57;3.90;;;27.90;1.00;;;;;;4916785;29;20883;-91
2023/06/13 11:16:48;;;;;;;5.70;3.93;;;27.90;1.00;;;;;;4901182;29;20428;-91
2023/06/13 11:19:28;;;;;;;6.63;3.37;;;28.10;1.00;;;;;;4886201;29;20873;-90
2023/06/13 11:22:29;;;;;;;3.80;3.33;;;28.10;1.00;;;;;;4904069;29;20498;-90
2023/06/13 11:24:59;;;;;;;6.23;3.37;;;28.20;1.00;;;;;;4903743;29;20440;-91
2023/06/13 11:31:03;;;;;;;10.60;3.77;;;28.30;1.00;;;;;;4925158;28;20474;-90
2023/06/13 11:33:56;;;;;;;7.57;4.00;;;28.40;1.00;;;;;;4978063;28;20439;-90
2023/06/13 11:36:26;;;;;;;5.50;3.23;;;28.20;1.00;;;;;;4973965;28;20485;-90
2023/06/13 11:42:23;;;;;;;4.33;3.40;;;28.20;1.00;;;;;;4995116;28;20475;-90
2023/06/13 11:45:28;;;;;;;7.57;3.40;;;28.40;1.00;;;;;;4977723;28;20945;-91
2023/06/13 11:47:59;;;;;;;4.87;3.50;;;28.50;1.00;;;;;;4969373;28;20499;-91
2023/06/13 11:50:28;;;;;;;7.67;3.50;;;28.60;1.00;;;;;;4982084;28;20512;-91
2023/06/13 11:53:28;;;;;;;8.40;3.67;;;28.60;1.00;;;;;;4995011;28;20929;-91
2023/06/13 11:56:04;;;;;;;6.00;3.70;;;28.70;1.00;;;;;;4979359;28;20423;-88
2023/06/13 11:58:58;;;;;;;9.57;3.90;;;28.80;1.00;;;;;;4970353;28;20451;-87
2023/06/13 12:01:28;;;;;;;3.70;3.33;;;28.90;1.00;;;;;;4970481;28;20455;-87
2023/06/13 12:04:28;;;;;;;6.37;3.50;;;28.90;1.00;;;;;;4977453;28;20480;-88
2023/06/13 12:07:03;;;;;;;11.13;3.80;;;29.00;1.00;;;;;;4982876;28;20423;-87
2023/06/13 12:12:59;;;;;;;9.07;3.73;;;;;;;;;;4996947;28;20486;-88
2023/06/13 12:15:28;;;;;;;3.70;3.40;;;;;;;;;;4977132;28;20455;-88
2023/06/13 12:18:28;;;;;;;3.77;3.37;;;29.30;1.00;;;;;;4982226;28;20412;-87
2023/06/13 12:21:28;;;;;;;4.60;3.40;;;29.20;1.00;;;;;;4994168;28;21009;-87
2023/06/13 12:24:03;;;;;;;5.43;3.13;;;29.40;1.00;;;;;;4977226;28;20433;-87
2023/06/13 12:26:43;;;;;;;3.80;3.40;;;29.40;1.00;;;;;;4977641;28;20428;-90
2023/06/13 12:29:31;;;;;;;8.03;3.27;;;29.50;1.00;;;;;;4983780;28;20428;-91
2023/06/13 12:32:29;;;;;;;4.10;3.40;;;29.60;1.00;;;;;;4987593;28;20511;-91
2023/06/13 12:35:01;;;;;;;3.23;3.03;;;29.60;1.00;;;;;;4989793;28;20432;-91
2023/06/13 12:37:34;;;;;;;4.13;3.30;;;29.70;1.00;;;;;;4973125;28;20448;-90
2023/06/13 12:40:31;;;;;;;6.93;3.40;;;29.70;1.00;;;;;;4976881;28;20531;-91
2023/06/13 12:43:01;;;;;;;8.03;3.37;;;29.70;1.00;;;;;;4972179;28;20455;-86
2023/06/13 12:45:31;;;;;;;3.43;3.13;;;29.80;1.00;;;;;;4973958;28;20417;-86
2023/06/13 12:47:59;;;;;;;7.30;3.67;;;;;;;;;;4986523;28;20960;-86
2023/06/13 12:50:37;;;;;;;6.73;3.43;;;29.90;1.00;;;;;;4993730;28;20429;-87
2023/06/13 12:56:53;;;;;;;3.83;3.00;;;30.00;1.00;;;;;;4989339;28;20488;-88
2023/06/13 13:03:05;;;;;;;5.60;3.50;;;29.90;1.00;;;;;;4987512;28;20428;-92
2023/06/13 13:09:28;;;;;;;5.93;3.30;;;30.00;1.00;;;;;;4994964;28;20496;-91
2023/06/13 13:12:16;;;;;;;3.53;3.23;;;30.00;1.00;;;;;;4961863;28;20424;-90
2023/06/13 13:18:04;;;;;;;2.93;2.70;;;30.10;1.00;;;;;;4996947;28;20480;-90
2023/06/13 13:20:34;;;;;;;7.70;3.57;;;30.00;1.00;;;;;;4997090;28;20543;-91
2023/06/13 13:26:45;;;;;;;6.90;3.23;;;30.00;1.00;;;;;;4986372;28;20389;-91
2023/06/13 13:32:33;;;;;;;4.20;3.60;;;30.30;1.00;;;;;;4986059;28;20857;-91
2023/06/13 13:45:05;;;;;;;5.60;3.53;;;30.50;1.00;;;;;;4990788;28;20392;-85
2023/06/13 13:50:58;;;;;;;4.00;3.60;;;30.70;1.00;;;;;;5000349;28;20459;-86
2023/06/13 13:57:34;;;;;;;3.50;3.20;;;30.90;1.00;;;;;;4985172;28;20413;-86
2023/06/13 14:00:28;;;;;;;3.40;3.20;;;31.00;1.00;;;;;;4982578;28;20548;-85
2023/06/13 14:09:38;;;;;;;5.20;3.70;;;31.00;1.00;;;;;;4994324;28;20427;-86
2023/06/13 14:15:25;;;;;;;5.40;3.37;;;31.10;1.00;;;;;;4995438;28;20197;-86
2023/06/13 14:17:58;;;;;;;5.10;3.43;;;31.00;1.00;;;;;;4972953;28;20436;-86
2023/06/13 14:20:25;;;;;;;5.20;3.80;;;30.90;1.00;;;;;;4977200;28;20246;-84
2023/06/13 14:23:16;;;;;;;5.87;3.60;;;30.90;1.00;;;;;;4981321;28;20421;-84
2023/06/13 14:26:04;;;;;;;15.97;3.83;;;30.80;1.00;;;;;;4995725;28;20425;-85
2023/06/13 14:32:40;;;;;;;6.17;3.50;;;30.70;1.00;;;;;;4995170;28;20448;-89
2023/06/13 14:38:28;;;;;;;3.67;3.33;;;31.10;1.00;;;;;;4995849;28;20424;-90
2023/06/13 14:40:55;;;;;;;4.23;3.83;;;31.10;1.00;;;;;;4961635;28;20454;-90
2023/06/13 14:46:42;;;;;;;3.80;3.50;;;31.20;1.00;;;;;;4987339;28;20427;-90
2023/06/13 14:53:04;;;;;;;3.77;3.47;;;31.30;1.00;;;;;;4993089;28;20192;-89
2023/06/13 14:55:30;;;;;;;7.07;3.90;;;31.30;1.00;;;;;;4980894;28;20433;-90
2023/06/13 14:57:58;;;;;;;7.60;3.80;;;31.20;1.00;;;;;;4971201;28;20426;-89
2023/06/13 15:00:52;;;;;;;3.70;3.40;;;31.20;1.00;;;;;;4974306;28;20206;-88
2023/06/13 15:03:29;;;;;;;3.87;3.50;;;31.20;1.00;;;;;;4971332;28;20438;-87
2023/06/13 15:06:20;;;;;;;5.40;4.00;;;31.40;1.00;;;;;;4971832;28;20425;-89
2023/06/13 15:08:47;;;;;;;8.90;3.93;;;32.40;1.00;;;;;;4957284;28;20822;-91
2023/06/13 15:14:36;;;;;;;6.80;3.20;;;35.40;1.00;;;;;;4996370;28;20548;-87
2023/06/13 15:20:34;;;;;;;6.60;2.70;;;39.30;1.00;;;;;;4983474;28;20528;-89
2023/06/13 15:26:23;;;;;;;3.20;2.83;;;42.10;1.00;;;;;;4991721;28;20843;-86
2023/06/13 15:32:46;;;;;;;4.87;2.33;;;44.50;1.00;;;;;;4994617;28;20400;-86
2023/06/13 15:38:33;;;;;;;4.50;2.37;;;45.80;1.00;;;;;;4994455;28;20934;-87
2023/06/13 15:44:23;;;;;;;2.00;1.90;;;47.40;1.00;;;;;;5000332;28;20196;-91
2023/06/13 15:47:05;;;;;;;2.20;2.10;;;47.60;1.00;;;;;;4977665;28;20494;-90
2023/06/13 15:49:34;;;;;;;2.03;1.93;;;48.20;1.00;;;;;;4996222;28;20459;-90
2023/06/13 15:52:11;;;;;;;1.93;1.80;;;49.00;1.00;;;;;;4993729;28;20499;-89
2023/06/13 15:54:40;;;;;;;3.30;2.17;;;49.30;1.00;;;;;;4981251;28;20454;-90
2023/06/13 15:57:07;;;;;;;2.13;1.90;;;49.50;1.00;;;;;;4990347;28;20433;-90
2023/06/13 15:59:35;;;;;;;2.30;1.60;;;49.60;1.00;;;;;;4980762;28;20454;-89
2023/06/13 16:02:17;;;;;;;6.70;1.90;;;50.10;1.00;;;;;;4979544;28;20503;-89
2023/06/13 16:04:46;;;;;;;1.90;1.80;;;50.20;1.00;;;;;;4984154;28;20435;-90
2023/06/13 16:07:17;;;;;;;1.97;1.73;;;50.50;1.00;;;;;;4975785;28;20436;-89
2023/06/13 16:09:47;;;;;;;1.80;1.70;;;50.70;1.00;;;;;;4976999;28;20947;-85